White Water, California
Current Conditions -  °F | °C
As of 10:53 AM on Monday 20 Oct 2014 (Local Time) from KPSP Reporting Station
Clear Clear  
Wind Chill: 82°   Ceiling: Unl
Heat Index: 82°   Visibility: 10mi
Dew Point: 56°   Wind: 6mph
Humidity: 41%   Direction: NA
Pressure: 29.9"   Gusts: NA
Location:  33.92°N, 116.64°W
Report Text: KPSP 201753Z VRB05KT 10SM CLR 28/13 A2990 RMK AO2 SLP121 T02780133 10278 20189 50013
Loading
Personal Weather Stations






























Interactive Weather Map
Tropical Storm Tracking
New forecast layout! Learn more

10-Day Weather Forecast

Advertisements
Track Severe Weather on mobile